| time (UTC) | temp F | wind direction | speed knots | gust knots | rain 1hr in | rain 24hr in | rain mn in | humidity % | barometer mb |
| 20260508111025 | 38 | 90 | 0.0 | 0.0 | 0.00 | 0.00 | 0.00 | 99 | 1004.3 |
| 20260508110033 | 37 | 85 | 0.0 | 0.0 | 0.00 | 0.00 | 0.00 | 99 | 1004.5 |
| 20260508105013 | 36 | 83 | 0.0 | 0.0 | 0.00 | 0.00 | 0.00 | 99 | 1004.5 |
| 20260508104014 | 36 | 85 | 0.0 | 0.0 | 0.00 | 0.00 | 0.00 | 99 | 1004.0 |
| 20260508102043 | 36 | 74 | 0.0 | 0.0 | 0.00 | 0.00 | 0.00 | 99 | 1004.3 |
| 20260508095015 | 36 | 85 | 0.0 | 0.0 | 0.00 | 0.00 | 0.00 | 99 | 1003.9 |
| 20260508094023 | 36 | 83 | 0.0 | 0.0 | 0.00 | 0.00 | 0.00 | 99 | 1003.9 |
| 20260508093026 | 37 | 89 | 0.0 | 0.0 | 0.00 | 0.00 | 0.00 | 99 | 1004.2 |
| 20260508092023 | 37 | 76 | 0.0 | 0.0 | 0.00 | 0.00 | 0.00 | 99 | 1003.9 |
| 20260508091019 | 37 | 84 | 0.0 | 0.0 | 0.00 | 0.00 | 0.00 | 99 | 1003.8 |
| 20260508090008 | 36 | 81 | 0.0 | 0.0 | 0.00 | 0.00 | 0.00 | 99 | 1003.8 |
| 20260508085020 | 37 | 79 | 0.0 | 0.0 | 0.00 | 0.00 | 0.00 | 99 | 1003.7 |
| 20260508084044 | 37 | 76 | 0.0 | 0.0 | 0.00 | 0.00 | 0.00 | 99 | 1003.6 |
| 20260508082028 | 37 | 83 | 0.0 | 0.0 | 0.00 | 0.00 | 0.00 | 99 | 1003.9 |
| 20260508081028 | 37 | 85 | 0.0 | 0.0 | 0.00 | 0.00 | 0.00 | 99 | 1003.6 |
| 20260508080015 | 38 | 86 | 0.0 | 0.0 | 0.00 | 0.00 | 0.00 | 99 | 1003.6 |
| 20260508074019 | 38 | 74 | 0.0 | 0.0 | 0.00 | 0.00 | 0.00 | 99 | 1003.8 |
| 20260508072026 | 38 | 81 | 0.0 | 0.0 | 0.00 | 0.00 | 0.00 | 99 | 1003.6 |
| 20260508071005 | 38 | 83 | 0.0 | 0.0 | 0.00 | 0.00 | 0.00 | 99 | 1003.6 |
| 20260508070008 | 38 | 83 | 0.0 | 0.0 | 0.00 | 0.00 | 0.00 | 99 | 1003.7 |
| 20260508065007 | 38 | 81 | 0.0 | 0.0 | 0.00 | 0.00 | 0.00 | 99 | 1003.6 |
| 20260508064017 | 39 | 73 | 0.0 | 0.0 | 0.00 | 0.00 | 0.00 | 99 | 1003.6 |
| 20260508062030 | 39 | 89 | 0.0 | 0.0 | 0.00 | 0.00 | 0.00 | 99 | 1003.6 |
| 20260508061011 | 39 | 86 | 0.0 | 0.0 | 0.00 | 0.00 | 0.00 | 98 | 1003.8 |
| 20260508060037 | 39 | 74 | 0.9 | 1.7 | 0.00 | 0.00 | 0.00 | 98 | 1003.8 |
| 20260508055019 | 40 | 91 | 0.0 | 0.0 | 0.00 | 0.00 | 0.00 | 98 | 1003.8 |
| 20260508054046 | 40 | 83 | 0.0 | 0.0 | 0.00 | 0.00 | 0.00 | 98 | 1003.7 |
| 20260508053039 | 40 | 80 | 0.0 | 0.0 | 0.00 | 0.00 | 0.00 | 97 | 1003.9 |
| 20260508052034 | 41 | 83 | 0.0 | 0.0 | 0.00 | 0.00 | 0.00 | 97 | 1003.7 |
| 20260508050026 | 41 | 85 | 0.0 | 0.0 | 0.00 | 0.00 | 0.00 | 96 | 1003.9 |
| 20260508045003 | 41 | 83 | 0.0 | 0.0 | 0.00 | 0.00 | 0.00 | 95 | 1003.6 |
| 20260508044017 | 41 | 85 | 0.0 | 0.0 | 0.00 | 0.00 | 0.00 | 94 | 1003.7 |
| 20260508043011 | 42 | 88 | 0.0 | 0.0 | 0.00 | 0.00 | 0.00 | 94 | 1003.7 |
| 20260508042008 | 42 | 93 | 0.0 | 0.0 | 0.00 | 0.00 | 0.00 | 93 | 1003.8 |
| 20260508041035 | 43 | 100 | 0.0 | 0.0 | 0.00 | 0.00 | 0.00 | 92 | 1003.9 |
| 20260508040024 | 43 | 76 | 0.0 | 0.0 | 0.00 | 0.00 | 0.00 | 91 | 1003.7 |
| 20260508035031 | 43 | 64 | 0.9 | 1.7 | 0.00 | 0.00 | 0.00 | 90 | 1003.8 |
| 20260508034034 | 43 | 83 | 0.0 | 0.0 | 0.00 | 0.00 | 0.00 | 87 | 1003.6 |
| 20260508032022 | 44 | 87 | 0.0 | 0.0 | 0.00 | 0.00 | 0.00 | 84 | 1003.5 |
| 20260508031032 | 44 | 79 | 0.0 | 0.0 | 0.00 | 0.00 | 0.00 | 83 | 1003.6 |
| 20260508030035 | 45 | 95 | 0.0 | 0.0 | 0.00 | 0.00 | 0.00 | 81 | 1003.5 |
| 20260508025038 | 46 | 97 | 0.0 | 0.0 | 0.00 | 0.00 | 0.00 | 80 | 1003.2 |
| 20260508024034 | 46 | 89 | 0.0 | 0.0 | 0.00 | 0.00 | 0.00 | 79 | 1003.2 |
| 20260508022017 | 47 | 79 | 0.0 | 0.0 | 0.00 | 0.00 | 0.00 | 71 | 1002.9 |
| 20260508021013 | 48 | 84 | 0.0 | 0.0 | 0.00 | 0.00 | 0.00 | 69 | 1002.6 |
| 20260508020013 | 48 | 89 | 0.0 | 0.0 | 0.00 | 0.00 | 0.00 | 66 | 1002.6 |
| 20260508014044 | 50 | 94 | 0.0 | 0.0 | 0.00 | 0.00 | 0.00 | 62 | 1002.5 |
| 20260508013017 | 52 | 89 | 0.0 | 0.0 | 0.00 | 0.00 | 0.00 | 55 | 1002.3 |
| 20260508012034 | 53 | 68 | 0.9 | 1.7 | 0.00 | 0.00 | 0.00 | 52 | 1002.1 |
| 20260508011002 | 53 | 60 | 0.9 | 1.7 | 0.00 | 0.00 | 0.00 | 50 | 1001.9 |
| 20260508010026 | 54 | 78 | 0.9 | 1.7 | 0.00 | 0.00 | 0.00 | 50 | 1002.0 |
| 20260508005043 | 54 | 85 | 0.0 | 0.0 | 0.00 | 0.00 | 0.00 | 49 | 1001.9 |
| 20260508004019 | 54 | 81 | 0.9 | 1.7 | 0.00 | 0.00 | 0.00 | 48 | 1001.7 |
| 20260508002024 | 56 | 73 | 0.0 | 0.0 | 0.00 | 0.00 | 0.00 | 48 | 1001.6 |
| 20260508001016 | 57 | 108 | 0.0 | 0.0 | 0.00 | 0.00 | 0.00 | 46 | 1001.2 |
| 20260508000035 | 56 | 52 | 0.9 | 1.7 | 0.00 | 0.00 | 0.00 | 47 | 1001.3 |
| 20260507235021 | 57 | 69 | 0.9 | 1.7 | 0.00 | 0.00 | 0.00 | 47 | 1001.1 |
| 20260507234004 | 57 | 93 | 0.0 | 0.0 | 0.00 | 0.00 | 0.00 | 49 | 1001.1 |
| 20260507232045 | 59 | 95 | 0.0 | 0.0 | 0.00 | 0.00 | 0.00 | 47 | 1000.8 |
| 20260507231028 | 59 | 66 | 0.9 | 1.7 | 0.00 | 0.00 | 0.00 | 46 | 1000.9 |
| 20260507225031 | 60 | 7 | 1.7 | 2.6 | 0.00 | 0.00 | 0.00 | 51 | 1001.0 |
| 20260507224045 | 61 | 140 | 1.7 | 2.6 | 0.00 | 0.00 | 0.00 | 51 | 1000.5 |
| 20260507223006 | 60 | 69 | 1.7 | 3.5 | 0.00 | 0.00 | 0.00 | 46 | 1000.7 |
| 20260507222006 | 60 | 40 | 1.7 | 2.6 | 0.00 | 0.00 | 0.00 | 49 | 1000.5 |
| 20260507221004 | 61 | 100 | 0.0 | 0.0 | 0.00 | 0.00 | 0.00 | 48 | 1000.4 |
| 20260507220017 | 63 | 53 | 1.7 | 2.6 | 0.00 | 0.00 | 0.00 | 49 | 1000.2 |
| 20260507215002 | 63 | 60 | 1.7 | 2.6 | 0.00 | 0.00 | 0.00 | 48 | 1000.3 |
| 20260507214039 | 63 | 178 | 1.7 | 3.5 | 0.00 | 0.00 | 0.00 | 51 | 1000.2 |
| 20260507213005 | 63 | 152 | 0.9 | 2.6 | 0.00 | 0.00 | 0.00 | 52 | 1000.1 |
| 20260507212004 | 61 | 62 | 0.9 | 1.7 | 0.00 | 0.00 | 0.00 | 52 | 1000.1 |
| 20260507211010 | 61 | 34 | 0.9 | 1.7 | 0.00 | 0.00 | 0.00 | 50 | 1000.1 |
| 20260507210024 | 61 | 48 | 0.9 | 1.7 | 0.00 | 0.00 | 0.00 | 54 | 999.8 |
| 20260507205002 | 62 | 108 | 0.9 | 1.7 | 0.00 | 0.00 | 0.00 | 56 | 999.9 |
| 20260507204031 | 62 | 108 | 0.0 | 0.0 | 0.00 | 0.00 | 0.00 | 48 | 999.9 |
| 20260507203009 | 63 | 105 | 0.0 | 0.0 | 0.00 | 0.00 | 0.00 | 49 | 999.7 |
| 20260507202005 | 64 | 48 | 0.9 | 1.7 | 0.00 | 0.00 | 0.00 | 48 | 999.9 |
| 20260507201033 | 66 | 100 | 1.7 | 2.6 | 0.00 | 0.00 | 0.00 | 46 | 999.7 |
| 20260507195028 | 66 | 95 | 0.9 | 1.7 | 0.00 | 0.00 | 0.00 | 51 | 999.9 |
| 20260507194033 | 63 | 116 | 0.9 | 1.7 | 0.00 | 0.00 | 0.00 | 53 | 1000.1 |
| 20260507193007 | 64 | 79 | 0.9 | 1.7 | 0.00 | 0.00 | 0.00 | 50 | 1000.3 |
| 20260507191021 | 64 | 96 | 0.9 | 1.7 | 0.00 | 0.00 | 0.00 | 53 | 1000.4 |
| 20260507190011 | 63 | 86 | 1.7 | 1.7 | 0.00 | 0.00 | 0.00 | 52 | 1000.7 |
| 20260507185013 | 64 | 104 | 1.7 | 2.6 | 0.00 | 0.00 | 0.00 | 56 | 1000.6 |
| 20260507184010 | 62 | 71 | 0.9 | 2.6 | 0.00 | 0.00 | 0.00 | 59 | 1000.9 |
| 20260507183005 | 63 | 299 | 0.9 | 1.7 | 0.00 | 0.00 | 0.00 | 57 | 1000.6 |
| 20260507181006 | 64 | 89 | 1.7 | 2.6 | 0.00 | 0.00 | 0.00 | 54 | 1000.6 |
| 20260507180027 | 64 | 73 | 2.6 | 2.6 | 0.00 | 0.00 | 0.00 | 54 | 1000.9 |
| 20260507175019 | 64 | 31 | 1.7 | 2.6 | 0.00 | 0.00 | 0.00 | 55 | 1000.8 |
| 20260507174016 | 64 | 116 | 1.7 | 1.7 | 0.00 | 0.00 | 0.00 | 56 | 1000.9 |
| 20260507172017 | 63 | 160 | 0.9 | 2.6 | 0.00 | 0.00 | 0.00 | 57 | 1001.0 |
| 20260507170033 | 60 | 79 | 0.9 | 1.7 | 0.00 | 0.00 | 0.00 | 59 | 1001.4 |
| 20260507165016 | 61 | 77 | 0.0 | 0.0 | 0.00 | 0.00 | 0.00 | 58 | 1001.2 |
| 20260507164031 | 62 | 102 | 1.7 | 2.6 | 0.00 | 0.00 | 0.00 | 57 | 1001.4 |
| 20260507163026 | 61 | 135 | 3.5 | 4.3 | 0.00 | 0.00 | 0.00 | 65 | 1001.5 |
| 20260507162008 | 61 | 90 | 1.7 | 1.7 | 0.00 | 0.00 | 0.00 | 61 | 1001.6 |
| 20260507161024 | 60 | 89 | 0.0 | 0.0 | 0.00 | 0.00 | 0.00 | 63 | 1001.6 |
| 20260507154009 | 58 | 102 | 0.0 | 0.0 | 0.00 | 0.00 | 0.00 | 70 | 1001.8 |
| 20260507153013 | 57 | 91 | 1.7 | 2.6 | 0.00 | 0.00 | 0.00 | 67 | 1001.8 |
| 20260507152039 | 58 | 73 | 2.6 | 3.5 | 0.00 | 0.00 | 0.00 | 63 | 1001.8 |
| 20260507151012 | 58 | 112 | 1.7 | 2.6 | 0.00 | 0.00 | 0.00 | 69 | 1002.1 |
| 20260507150018 | 58 | 167 | 2.6 | 3.5 | 0.00 | 0.00 | 0.00 | 65 | 1002.0 |
| 20260507145016 | 56 | 83 | 0.0 | 0.0 | 0.00 | 0.00 | 0.00 | 67 | 1002.2 |
| 20260507143013 | 55 | 89 | 0.9 | 1.7 | 0.00 | 0.00 | 0.00 | 66 | 1002.1 |
| 20260507142005 | 56 | 100 | 0.0 | 0.0 | 0.00 | 0.00 | 0.00 | 76 | 1002.2 |
| 20260507140025 | 54 | 106 | 0.0 | 0.0 | 0.00 | 0.00 | 0.00 | 76 | 1002.6 |
| 20260507135034 | 54 | 83 | 1.7 | 2.6 | 0.00 | 0.00 | 0.00 | 80 | 1002.7 |
| 20260507134037 | 54 | 77 | 0.0 | 0.0 | 0.00 | 0.00 | 0.00 | 79 | 1002.6 |
| 20260507133039 | 53 | 93 | 0.0 | 0.0 | 0.00 | 0.00 | 0.00 | 79 | 1002.7 |
| 20260507132010 | 53 | 104 | 0.0 | 0.0 | 0.00 | 0.00 | 0.00 | 85 | 1002.6 |
| 20260507131040 | 53 | 101 | 0.0 | 0.0 | 0.00 | 0.00 | 0.00 | 87 | 1002.6 |
| 20260507130006 | 51 | 75 | 0.9 | 1.7 | 0.00 | 0.00 | 0.00 | 91 | 1002.6 |
| 20260507125011 | 52 | 98 | 0.9 | 1.7 | 0.00 | 0.00 | 0.00 | 97 | 1002.7 |
| 20260507124023 | 52 | 114 | 0.9 | 1.7 | 0.00 | 0.00 | 0.00 | 98 | 1002.4 |
| 20260507123028 | 51 | 101 | 0.0 | 0.0 | 0.00 | 0.00 | 0.00 | 99 | 1002.6 |
| 20260507122017 | 51 | 98 | 0.0 | 0.0 | 0.00 | 0.00 | 0.00 | 99 | 1002.6 |
| 20260507121010 | 51 | 90 | 0.0 | 0.0 | 0.00 | 0.00 | 0.00 | 99 | 1002.7 |
| 20260507115008 | 50 | 98 | 0.0 | 0.0 | 0.00 | 0.00 | 0.00 | 99 | 1002.5 |
| 20260507113002 | 50 | 95 | 0.0 | 0.0 | 0.00 | 0.00 | 0.00 | 99 | 1002.8 |
| 20260507112035 | 50 | 95 | 0.0 | 0.0 | 0.00 | 0.00 | 0.00 | 99 | 1002.5 |